Time,TemperatureF,DewpointF,PressureIn,WindDirection,WindDirectionDegrees,WindSpeedMPH,WindSpeedGustMPH,Humidity,HourlyPrecipIn,Conditions,Clouds,dailyrainin,SoftwareType,DateUTC
2013-02-11 00:13:00,41.8,36.0,29.87,ESE,121,2.0,-999.0,80,-99.99,,,0.02,weatherlink.com 1.10,2013-02-11 05:13:00,
2013-02-11 00:28:00,41.8,36.0,29.86,East,80,8.0,-999.0,81,-99.99,,,0.02,weatherlink.com 1.10,2013-02-11 05:28:00,
2013-02-11 00:43:00,43.1,37.0,29.82,SSW,213,13.0,-999.0,80,-99.99,,,0.02,weatherlink.com 1.10,2013-02-11 05:43:00,
2013-02-11 00:59:00,43.6,38.0,29.83,SW,222,6.0,-999.0,79,-99.99,,,0.02,weatherlink.com 1.10,2013-02-11 05:59:00,
2013-02-11 01:14:00,46.1,38.0,29.84,SW,224,7.0,-999.0,73,-99.99,,,0.02,weatherlink.com 1.10,2013-02-11 06:14:00,
2013-02-11 01:29:00,45.7,37.0,29.82,East,82,10.0,-999.0,73,-99.99,,,0.02,weatherlink.com 1.10,2013-02-11 06:29:00,
2013-02-11 01:44:00,46.0,37.0,29.80,SE,136,13.0,-999.0,72,-99.99,,,0.02,weatherlink.com 1.10,2013-02-11 06:44:00,
2013-02-11 01:59:00,45.7,38.0,29.79,ESE,120,10.0,-999.0,74,-99.99,,,0.02,weatherlink.com 1.10,2013-02-11 06:59:00,
2013-02-11 02:14:00,46.2,39.0,29.79,SSE,152,9.0,-999.0,76,-99.99,,,0.02,weatherlink.com 1.10,2013-02-11 07:14:00,
2013-02-11 02:29:00,45.2,39.0,29.78,ESE,121,13.0,-999.0,78,-99.99,,,0.02,weatherlink.com 1.10,2013-02-11 07:29:00,
2013-02-11 02:44:00,45.1,39.0,29.78,SE,144,7.0,-999.0,79,-99.99,,,0.02,weatherlink.com 1.10,2013-02-11 07:44:00,
2013-02-11 02:59:00,47.3,40.0,29.78,South,172,5.0,-999.0,75,-99.99,,,0.02,weatherlink.com 1.10,2013-02-11 07:59:00,
2013-02-11 03:14:00,48.0,40.0,29.77,SSE,158,14.0,-999.0,74,-99.99,,,0.02,weatherlink.com 1.10,2013-02-11 08:14:00,
2013-02-11 03:29:00,48.8,40.0,29.75,SE,143,6.0,-999.0,72,-99.99,,,0.02,weatherlink.com 1.10,2013-02-11 08:29:00,
2013-02-11 03:44:00,49.6,40.0,29.75,SSE,150,8.0,-999.0,70,-99.99,,,0.02,weatherlink.com 1.10,2013-02-11 08:44:00,
2013-02-11 03:59:00,50.5,41.0,29.75,SSE,152,6.0,-999.0,70,-99.99,,,0.02,weatherlink.com 1.10,2013-02-11 08:59:00,
2013-02-11 04:14:00,50.8,41.0,29.74,South,175,8.0,-999.0,69,-99.99,,,0.02,weatherlink.com 1.10,2013-02-11 09:14:00,
2013-02-11 04:29:00,51.6,41.0,29.75,South,185,8.0,-999.0,67,-99.99,,,0.02,weatherlink.com 1.10,2013-02-11 09:29:00,
2013-02-11 04:44:00,52.3,41.0,29.75,South,175,10.0,-999.0,66,-99.99,,,0.02,weatherlink.com 1.10,2013-02-11 09:44:00,
2013-02-11 04:59:00,52.9,41.0,29.75,SW,216,11.0,-999.0,64,-99.99,,,0.02,weatherlink.com 1.10,2013-02-11 09:59:00,
2013-02-11 05:14:00,52.9,41.0,29.74,South,181,7.0,-999.0,65,-99.99,,,0.02,weatherlink.com 1.10,2013-02-11 10:14:00,
2013-02-11 05:29:00,53.9,42.0,29.74,South,176,12.0,-999.0,64,-99.99,,,0.02,weatherlink.com 1.10,2013-02-11 10:29:00,
2013-02-11 05:44:00,54.2,42.0,29.74,South,188,5.0,-999.0,64,-99.99,,,0.02,weatherlink.com 1.10,2013-02-11 10:44:00,
2013-02-11 05:59:00,54.1,42.0,29.74,South,179,5.0,-999.0,64,-99.99,,,0.02,weatherlink.com 1.10,2013-02-11 10:59:00,
2013-02-11 06:14:00,53.9,42.0,29.75,SSW,202,4.0,-999.0,64,-99.99,,,0.02,weatherlink.com 1.10,2013-02-11 11:14:00,
2013-02-11 06:29:00,53.6,42.0,29.75,ESE,116,7.0,-999.0,65,-99.99,,,0.02,weatherlink.com 1.10,2013-02-11 11:29:00,
2013-02-11 06:44:00,53.6,42.0,29.75,SSW,206,4.0,-999.0,65,-99.99,,,0.02,weatherlink.com 1.10,2013-02-11 11:44:00,
2013-02-11 06:59:00,53.3,43.0,29.75,SSE,161,5.0,-999.0,68,-99.99,,,0.02,weatherlink.com 1.10,2013-02-11 11:59:00,
2013-02-11 07:14:00,52.9,43.0,29.75,South,181,6.0,-999.0,70,-99.99,,,0.02,weatherlink.com 1.10,2013-02-11 12:14:00,
2013-02-11 07:29:00,52.3,44.0,29.75,SW,229,16.0,-999.0,72,-99.99,,,0.03,weatherlink.com 1.10,2013-02-11 12:29:00,
2013-02-11 07:44:00,52.8,44.0,29.75,SSE,150,5.0,-999.0,71,-99.99,,,0.03,weatherlink.com 1.10,2013-02-11 12:44:00,
2013-02-11 07:59:00,53.2,44.0,29.73,South,189,16.0,-999.0,71,-99.99,,,0.03,weatherlink.com 1.10,2013-02-11 12:59:00,
2013-02-11 08:14:00,53.5,44.0,29.73,SSE,155,5.0,-999.0,71,-99.99,,,0.03,weatherlink.com 1.10,2013-02-11 13:14:00,
2013-02-11 08:29:00,53.6,45.0,29.74,SSW,196,6.0,-999.0,72,-99.99,,,0.03,weatherlink.com 1.10,2013-02-11 13:29:00,
2013-02-11 08:44:00,54.1,45.0,29.73,SE,131,15.0,-999.0,71,-99.99,,,0.03,weatherlink.com 1.10,2013-02-11 13:44:00,
2013-02-11 08:59:00,54.7,45.0,29.73,SE,141,2.0,-999.0,69,-99.99,,,0.03,weatherlink.com 1.10,2013-02-11 13:59:00,
2013-02-11 09:14:00,55.1,45.0,29.73,SSE,161,4.0,-999.0,68,-99.99,,,0.03,weatherlink.com 1.10,2013-02-11 14:14:00,
2013-02-11 09:29:00,55.1,45.0,29.72,SW,227,5.0,-999.0,69,-99.99,,,0.03,weatherlink.com 1.10,2013-02-11 14:29:00,
2013-02-11 09:44:00,55.3,45.0,29.72,SW,220,10.0,-999.0,69,-99.99,,,0.03,weatherlink.com 1.10,2013-02-11 14:44:00,
2013-02-11 09:59:00,55.9,45.0,29.71,WSW,244,11.0,-999.0,67,-99.99,,,0.03,weatherlink.com 1.10,2013-02-11 14:59:00,
2013-02-11 10:14:00,56.9,45.0,29.70,SSW,193,10.0,-999.0,65,-99.99,,,0.03,weatherlink.com 1.10,2013-02-11 15:14:00,
2013-02-11 10:29:00,57.6,44.0,29.70,South,171,8.0,-999.0,62,-99.99,,,0.03,weatherlink.com 1.10,2013-02-11 15:29:00,
2013-02-11 10:44:00,58.1,42.0,29.69,SSW,196,10.0,-999.0,56,-99.99,,,0.03,weatherlink.com 1.10,2013-02-11 15:44:00,
2013-02-11 10:59:00,58.9,42.0,29.68,WSW,241,12.0,-999.0,53,-99.99,,,0.03,weatherlink.com 1.10,2013-02-11 15:59:00,
2013-02-11 11:14:00,59.0,40.0,29.68,SSW,213,3.0,-999.0,50,-99.99,,,0.03,weatherlink.com 1.10,2013-02-11 16:14:00,
2013-02-11 11:30:00,59.9,38.0,29.66,WSW,253,19.0,-999.0,45,-99.99,,,0.03,weatherlink.com 1.10,2013-02-11 16:30:00,
2013-02-11 11:45:00,60.1,37.0,29.66,WSW,250,17.0,-999.0,43,-99.99,,,0.03,weatherlink.com 1.10,2013-02-11 16:45:00,
2013-02-11 12:00:00,60.4,37.0,29.65,WSW,239,14.0,-999.0,42,-99.99,,,0.03,weatherlink.com 1.10,2013-02-11 17:00:00,
2013-02-11 12:15:00,59.8,33.0,29.65,WSW,250,11.0,-999.0,36,-99.99,,,0.03,weatherlink.com 1.10,2013-02-11 17:15:00,
2013-02-11 12:30:00,60.2,32.0,29.64,SSW,196,21.0,-999.0,35,-99.99,,,0.03,weatherlink.com 1.10,2013-02-11 17:30:00,
2013-02-11 12:45:00,61.0,31.0,29.64,SW,216,15.0,-999.0,32,-99.99,,,0.03,weatherlink.com 1.10,2013-02-11 17:45:00,
2013-02-11 13:00:00,61.2,28.0,29.63,SW,236,20.0,-999.0,28,-99.99,,,0.03,weatherlink.com 1.10,2013-02-11 18:00:00,
2013-02-11 13:15:00,61.5,28.0,29.63,West,280,20.0,-999.0,28,-99.99,,,0.03,weatherlink.com 1.10,2013-02-11 18:15:00,
2013-02-11 13:30:00,60.9,27.0,29.62,SW,220,12.0,-999.0,27,-99.99,,,0.03,weatherlink.com 1.10,2013-02-11 18:30:00,
2013-02-11 13:45:00,61.0,27.0,29.61,West,270,14.0,-999.0,27,-99.99,,,0.03,weatherlink.com 1.10,2013-02-11 18:45:00,
2013-02-11 14:00:00,61.2,27.0,29.60,WNW,288,10.0,-999.0,27,-99.99,,,0.03,weatherlink.com 1.10,2013-02-11 19:00:00,
2013-02-11 14:15:00,61.8,28.0,29.59,SSW,213,2.0,-999.0,28,-99.99,,,0.03,weatherlink.com 1.10,2013-02-11 19:15:00,
2013-02-11 14:30:00,60.9,27.0,29.59,WNW,291,9.0,-999.0,27,-99.99,,,0.03,weatherlink.com 1.10,2013-02-11 19:30:00,
2013-02-11 14:45:00,61.2,26.0,29.59,West,275,10.0,-999.0,26,-99.99,,,0.03,weatherlink.com 1.10,2013-02-11 19:45:00,
2013-02-11 15:00:00,60.5,22.0,29.60,WNW,282,7.0,-999.0,23,-99.99,,,0.03,weatherlink.com 1.10,2013-02-11 20:00:00,
2013-02-11 15:15:00,60.4,22.0,29.60,SW,236,19.0,-999.0,23,-99.99,,,0.03,weatherlink.com 1.10,2013-02-11 20:15:00,
2013-02-11 15:30:00,59.9,23.0,29.61,West,267,20.0,-999.0,24,-99.99,,,0.03,weatherlink.com 1.10,2013-02-11 20:30:00,
2013-02-11 15:45:00,60.2,21.0,29.60,South,188,5.0,-999.0,22,-99.99,,,0.03,weatherlink.com 1.10,2013-02-11 20:45:00,
2013-02-11 16:00:00,59.8,21.0,29.60,WSW,257,19.0,-999.0,22,-99.99,,,0.03,weatherlink.com 1.10,2013-02-11 21:00:00,
2013-02-11 16:15:00,59.6,22.0,29.60,WSW,257,13.0,-999.0,23,-99.99,,,0.03,weatherlink.com 1.10,2013-02-11 21:15:00,
2013-02-11 16:30:00,58.7,21.0,29.60,WSW,258,11.0,-999.0,23,-99.99,,,0.03,weatherlink.com 1.10,2013-02-11 21:30:00,
2013-02-11 16:45:00,58.0,20.0,29.61,WSW,257,14.0,-999.0,23,-99.99,,,0.03,weatherlink.com 1.10,2013-02-11 21:45:00,
2013-02-11 17:00:00,57.0,19.0,29.61,SSW,200,10.0,-999.0,23,-99.99,,,0.03,weatherlink.com 1.10,2013-02-11 22:00:00,
2013-02-11 17:15:00,56.6,19.0,29.62,WSW,237,14.0,-999.0,23,-99.99,,,0.03,weatherlink.com 1.10,2013-02-11 22:15:00,
2013-02-11 17:30:00,56.0,19.0,29.62,SW,229,2.0,-999.0,24,-99.99,,,0.03,weatherlink.com 1.10,2013-02-11 22:30:00,
2013-02-11 17:45:00,55.4,20.0,29.63,West,268,6.0,-999.0,25,-99.99,,,0.03,weatherlink.com 1.10,2013-02-11 22:45:00,
2013-02-11 18:00:00,54.5,19.0,29.64,West,275,10.0,-999.0,25,-99.99,,,0.03,weatherlink.com 1.10,2013-02-11 23:00:00,
2013-02-11 18:15:00,53.8,19.0,29.66,WSW,257,8.0,-999.0,25,-99.99,,,0.03,weatherlink.com 1.10,2013-02-11 23:15:00,
2013-02-11 18:30:00,53.2,20.0,29.67,SW,222,5.0,-999.0,27,-99.99,,,0.03,weatherlink.com 1.10,2013-02-11 23:30:00,
2013-02-11 18:45:00,52.2,22.0,29.68,WSW,244,7.0,-999.0,31,-99.99,,,0.03,weatherlink.com 1.10,2013-02-11 23:45:00,
2013-02-11 19:00:00,48.0,28.0,29.70,NNW,343,19.0,-999.0,47,-99.99,,,0.03,weatherlink.com 1.10,2013-02-12 00:00:00,
2013-02-11 19:15:00,46.2,29.0,29.72,NW,319,11.0,-999.0,51,-99.99,,,0.03,weatherlink.com 1.10,2013-02-12 00:15:00,
2013-02-11 19:30:00,45.7,29.0,29.74,WNW,296,10.0,-999.0,52,-99.99,,,0.03,weatherlink.com 1.10,2013-02-12 00:30:00,
2013-02-11 19:45:00,44.8,28.0,29.75,WNW,302,6.0,-999.0,52,-99.99,,,0.03,weatherlink.com 1.10,2013-02-12 00:45:00,
2013-02-11 20:00:00,44.3,28.0,29.76,NNE,16,11.0,-999.0,53,-99.99,,,0.03,weatherlink.com 1.10,2013-02-12 01:00:00,
2013-02-11 20:15:00,43.8,28.0,29.77,WNW,298,7.0,-999.0,54,-99.99,,,0.03,weatherlink.com 1.10,2013-02-12 01:15:00,
2013-02-11 20:30:00,43.6,28.0,29.77,NNW,336,2.0,-999.0,55,-99.99,,,0.03,weatherlink.com 1.10,2013-02-12 01:30:00,
2013-02-11 20:45:00,42.8,28.0,29.78,NW,315,2.0,-999.0,56,-99.99,,,0.03,weatherlink.com 1.10,2013-02-12 01:45:00,
2013-02-11 21:00:00,42.6,28.0,29.79,NNW,340,8.0,-999.0,56,-99.99,,,0.03,weatherlink.com 1.10,2013-02-12 02:00:00,
2013-02-11 21:15:00,42.2,27.0,29.80,North,0,15.0,-999.0,56,-99.99,,,0.03,weatherlink.com 1.10,2013-02-12 02:15:00,
2013-02-11 21:30:00,41.8,27.0,29.80,NW,305,8.0,-999.0,57,-99.99,,,0.03,weatherlink.com 1.10,2013-02-12 02:30:00,
2013-02-11 21:45:00,41.5,28.0,29.81,NW,304,5.0,-999.0,58,-99.99,,,0.03,weatherlink.com 1.10,2013-02-12 02:45:00,
2013-02-11 22:00:00,41.5,28.0,29.81,WNW,282,5.0,-999.0,58,-99.99,,,0.03,weatherlink.com 1.10,2013-02-12 03:00:00,
2013-02-11 22:15:00,41.5,28.0,29.81,WNW,288,5.0,-999.0,58,-99.99,,,0.03,weatherlink.com 1.10,2013-02-12 03:15:00,
2013-02-11 22:30:00,41.3,27.0,29.81,WNW,284,2.0,-999.0,58,-99.99,,,0.03,weatherlink.com 1.10,2013-02-12 03:30:00,
2013-02-11 22:45:00,41.3,27.0,29.82,SW,232,8.0,-999.0,58,-99.99,,,0.03,weatherlink.com 1.10,2013-02-12 03:45:00,
2013-02-11 23:00:00,41.5,27.0,29.82,WNW,285,10.0,-999.0,57,-99.99,,,0.03,weatherlink.com 1.10,2013-02-12 04:00:00,
2013-02-11 23:15:00,41.2,26.0,29.82,West,278,4.0,-999.0,56,-99.99,,,0.03,weatherlink.com 1.10,2013-02-12 04:15:00,
2013-02-11 23:30:00,40.8,25.0,29.83,North,8,10.0,-999.0,54,-99.99,,,0.03,weatherlink.com 1.10,2013-02-12 04:30:00,
2013-02-11 23:45:00,40.5,24.0,29.84,NW,309,7.0,-999.0,53,-99.99,,,0.03,weatherlink.com 1.10,2013-02-12 04:45:00,